createdAt,value
2022-09-17T00:01:54.071Z,44.77
2022-09-17T00:06:59.134Z,44.63
2022-09-17T00:12:04.192Z,44.10
2022-09-17T00:17:09.507Z,44.07
2022-09-17T00:22:15.149Z,43.97
2022-09-17T00:27:20.342Z,44.13
2022-09-17T00:32:25.304Z,44.63
2022-09-17T00:37:31.044Z,44.07
2022-09-17T00:42:36.533Z,44.37
2022-09-17T00:47:48.236Z,43.83
2022-09-17T00:52:59.922Z,44.73
2022-09-17T00:58:08.292Z,43.80
2022-09-17T01:03:14.066Z,44.10
2022-09-17T01:08:28.074Z,44.40
2022-09-17T01:13:44.463Z,44.23
2022-09-17T01:19:10.903Z,44.33
2022-09-17T01:24:36.803Z,44.20
2022-09-17T01:30:06.573Z,44.10
2022-09-17T01:35:19.305Z,44.20
2022-09-17T01:40:27.911Z,44.40
2022-09-17T01:45:38.516Z,44.47
2022-09-17T01:50:58.546Z,44.20
2022-09-17T01:56:04.613Z,44.50
2022-09-17T02:01:13.834Z,44.03
2022-09-17T02:06:22.523Z,43.43
2022-09-17T02:11:28.408Z,44.05
2022-09-17T02:16:36.589Z,43.63
2022-09-17T02:21:53.336Z,44.43
2022-09-17T02:27:01.446Z,44.42
2022-09-17T02:32:07.379Z,44.60
2022-09-17T02:37:13.074Z,44.57
2022-09-17T02:42:33.419Z,43.90
2022-09-17T02:48:16.315Z,44.43
2022-09-17T02:53:28.635Z,44.70
2022-09-17T02:58:48.829Z,44.70
2022-09-17T03:03:58.062Z,44.47
2022-09-17T03:09:04.490Z,44.90
2022-09-17T03:14:10.055Z,44.40
2022-09-17T03:19:15.452Z,44.43
2022-09-17T03:24:20.645Z,44.50
2022-09-17T03:29:25.731Z,44.47
2022-09-17T03:34:31.160Z,44.20
2022-09-17T03:39:36.250Z,44.50
2022-09-17T03:44:45.305Z,44.37
2022-09-17T03:49:49.134Z,44.70
2022-09-17T03:54:54.187Z,44.50
2022-09-17T03:59:59.426Z,44.07
2022-09-17T04:05:04.437Z,44.30
2022-09-17T04:10:10.065Z,44.00
2022-09-17T04:15:15.031Z,43.93
2022-09-17T04:20:20.636Z,43.80
2022-09-17T04:25:26.810Z,44.23
2022-09-17T04:30:32.109Z,44.37
2022-09-17T04:35:37.395Z,44.30
2022-09-17T04:40:42.829Z,44.90
2022-09-17T04:45:50.540Z,44.17
2022-09-17T04:50:55.840Z,44.63
2022-09-17T04:56:01.223Z,44.07
2022-09-17T05:01:06.706Z,44.30
2022-09-17T05:06:12.732Z,44.60
2022-09-17T05:11:17.954Z,44.60
2022-09-17T05:16:24.224Z,44.67
2022-09-17T05:21:29.154Z,44.70
2022-09-17T05:26:34.184Z,44.80
2022-09-17T05:31:39.271Z,44.50
2022-09-17T05:36:44.611Z,44.37
2022-09-17T05:41:50.023Z,45.00
2022-09-17T05:46:55.506Z,44.67
2022-09-17T05:52:00.406Z,44.37
2022-09-17T05:57:06.696Z,44.67
2022-09-17T06:02:14.703Z,45.17
2022-09-17T06:07:20.509Z,45.38
2022-09-17T06:12:25.655Z,45.70
2022-09-17T06:17:35.774Z,45.25
2022-09-17T06:22:40.607Z,45.87
2022-09-17T06:27:45.973Z,45.33
2022-09-17T06:32:51.164Z,44.53
2022-09-17T06:37:56.332Z,44.60
2022-09-17T06:43:02.141Z,45.70
2022-09-17T06:48:09.854Z,46.07
2022-09-17T06:53:16.427Z,45.03
2022-09-17T07:03:25.292Z,45.33
2022-09-17T07:08:32.143Z,45.53
2022-09-17T07:13:37.193Z,45.58
2022-09-17T07:18:42.166Z,45.47
2022-09-17T07:23:47.491Z,45.33
2022-09-17T07:28:52.541Z,45.30
2022-09-17T07:33:57.494Z,46.30
2022-09-17T07:39:02.516Z,45.77
2022-09-17T07:44:09.680Z,48.63
2022-09-17T07:54:18.644Z,46.03
2022-09-17T07:59:23.978Z,46.20
2022-09-17T08:04:29.287Z,45.83
2022-09-17T08:09:35.157Z,46.57
2022-09-17T08:14:41.019Z,46.33
2022-09-17T08:19:46.555Z,46.70
2022-09-17T08:24:51.849Z,46.93
2022-09-17T08:29:57.472Z,46.10
2022-09-17T08:35:02.526Z,46.63
2022-09-17T08:40:10.335Z,47.10
2022-09-17T08:45:22.021Z,47.20
2022-09-17T08:50:37.765Z,47.07
2022-09-17T08:55:48.806Z,46.67
2022-09-17T09:00:58.819Z,46.90
2022-09-17T09:06:07.308Z,46.80
2022-09-17T09:11:21.317Z,46.20
2022-09-17T09:16:31.405Z,46.68
2022-09-17T09:21:42.044Z,46.13
2022-09-17T09:26:51.790Z,46.47
2022-09-17T09:32:17.050Z,45.98
2022-09-17T09:37:34.891Z,46.63
2022-09-17T09:42:40.666Z,46.20
2022-09-17T09:48:00.780Z,45.57
2022-09-17T09:53:14.847Z,45.30
2022-09-17T09:58:37.883Z,45.95
2022-09-17T10:03:46.248Z,45.53
2022-09-17T10:08:57.521Z,45.67
2022-09-17T10:14:26.312Z,45.70
2022-09-17T10:19:32.370Z,45.37
2022-09-17T10:24:40.350Z,45.30
2022-09-17T10:29:51.877Z,45.67
2022-09-17T10:35:08.782Z,45.50
2022-09-17T10:40:23.042Z,46.70
2022-09-17T10:45:32.831Z,45.73
2022-09-17T10:50:38.431Z,45.67
2022-09-17T10:55:50.494Z,46.58
2022-09-17T11:01:20.211Z,47.10
2022-09-17T11:06:51.674Z,46.83
2022-09-17T11:12:09.300Z,45.60
2022-09-17T11:17:42.722Z,45.90
2022-09-17T11:23:15.422Z,46.03
2022-09-17T11:28:49.639Z,45.78
2022-09-17T11:34:12.744Z,45.53
2022-09-17T11:39:24.579Z,45.00
2022-09-17T11:44:41.405Z,45.55
2022-09-17T11:50:02.435Z,45.17
2022-09-17T11:55:25.177Z,45.97
2022-09-17T12:00:34.245Z,46.10
2022-09-17T12:05:45.621Z,45.70
2022-09-17T12:10:54.179Z,45.50
2022-09-17T12:16:11.402Z,45.47
2022-09-17T12:21:19.697Z,45.17
2022-09-17T12:26:31.046Z,46.05
2022-09-17T12:31:48.341Z,45.43
2022-09-17T12:37:13.056Z,46.23
2022-09-17T12:42:27.183Z,45.83
2022-09-17T12:47:56.108Z,46.47
2022-09-17T12:53:08.585Z,46.23
2022-09-17T12:58:41.427Z,46.17
2022-09-17T13:03:49.629Z,45.97
2022-09-17T13:09:21.761Z,46.70
2022-09-17T13:14:33.018Z,46.93
2022-09-17T13:20:14.377Z,46.40
2022-09-17T13:25:22.485Z,46.33
2022-09-17T13:30:33.360Z,46.35
2022-09-17T13:35:41.704Z,46.72
2022-09-17T13:40:47.829Z,46.63
2022-09-17T13:46:06.801Z,46.80
2022-09-17T13:51:32.748Z,46.83
2022-09-17T13:56:46.472Z,46.67
2022-09-17T14:02:18.038Z,46.53
2022-09-17T14:07:29.188Z,46.75
2022-09-17T14:12:45.028Z,46.80
2022-09-17T14:17:52.050Z,46.20
2022-09-17T14:23:01.143Z,45.48
2022-09-17T14:28:12.789Z,45.97
2022-09-17T14:33:25.158Z,46.13
2022-09-17T14:38:45.459Z,45.67
2022-09-17T14:43:56.352Z,45.73
2022-09-17T14:49:26.183Z,46.12
2022-09-17T14:54:36.383Z,45.58
2022-09-17T15:00:00.407Z,45.47
2022-09-17T15:05:21.180Z,45.23
2022-09-17T15:10:27.142Z,45.43
2022-09-17T15:15:33.422Z,45.28
2022-09-17T15:20:39.682Z,45.13
2022-09-17T15:25:47.086Z,45.67
2022-09-17T15:30:52.408Z,44.90
2022-09-17T15:36:21.626Z,45.57
2022-09-17T15:41:35.862Z,45.80
2022-09-17T15:46:41.203Z,45.57
2022-09-17T15:51:47.892Z,45.60
2022-09-17T15:56:56.155Z,45.77
2022-09-17T16:02:03.163Z,45.47
2022-09-17T16:07:30.131Z,46.00
2022-09-17T16:12:36.396Z,45.63
2022-09-17T16:17:47.934Z,45.80
2022-09-17T16:22:57.249Z,46.10
2022-09-17T16:28:05.189Z,45.83
2022-09-17T16:33:13.272Z,45.23
2022-09-17T16:38:18.441Z,45.88
2022-09-17T16:43:23.666Z,45.67
2022-09-17T16:48:29.386Z,45.23
2022-09-17T16:53:34.744Z,46.17
2022-09-17T16:58:44.183Z,45.60
2022-09-17T17:03:54.741Z,45.23
2022-09-17T17:09:01.443Z,45.90
2022-09-17T17:14:09.458Z,45.17
2022-09-17T17:19:14.264Z,45.30
2022-09-17T17:24:19.998Z,45.63
2022-09-17T17:29:25.240Z,45.23
2022-09-17T17:34:31.596Z,45.67
2022-09-17T17:39:36.962Z,45.53
2022-09-17T17:44:43.077Z,45.37
2022-09-17T17:49:50.633Z,45.40
2022-09-17T17:54:58.468Z,45.17
2022-09-17T18:00:05.882Z,45.28
2022-09-17T18:05:12.120Z,45.43
2022-09-17T18:10:19.125Z,44.72
2022-09-17T18:15:25.654Z,45.08
2022-09-17T18:20:31.287Z,45.33
2022-09-17T18:25:36.258Z,44.50
2022-09-17T18:30:44.005Z,45.27
2022-09-17T18:35:49.890Z,45.60
2022-09-17T18:46:01.421Z,44.95
2022-09-17T18:51:09.648Z,45.33
2022-09-17T18:56:28.559Z,45.67
2022-09-17T19:01:34.582Z,45.10
2022-09-17T19:06:40.120Z,46.53
2022-09-17T19:11:45.794Z,45.90
2022-09-17T19:16:52.293Z,45.53
2022-09-17T19:27:08.897Z,44.73
2022-09-17T19:32:14.324Z,44.50
2022-09-17T19:37:19.883Z,45.43
2022-09-17T19:42:26.249Z,44.90
2022-09-17T19:47:32.070Z,44.08
2022-09-17T19:52:38.215Z,44.93
2022-09-17T19:57:43.598Z,44.70
2022-09-17T20:02:53.889Z,44.63
2022-09-17T20:08:00.357Z,45.13
2022-09-17T20:13:08.669Z,44.03
2022-09-17T20:18:13.837Z,44.17
2022-09-17T20:23:19.405Z,44.45
2022-09-17T20:28:24.879Z,44.65
2022-09-17T20:33:30.229Z,44.50
2022-09-17T20:43:48.719Z,45.00
2022-09-17T20:48:54.683Z,44.67
2022-09-17T20:54:03.829Z,44.67
2022-09-17T20:59:22.192Z,44.27
2022-09-17T21:04:27.783Z,44.70
2022-09-17T21:09:34.572Z,44.73
2022-09-17T21:14:41.411Z,44.37
2022-09-17T21:19:47.012Z,44.53
2022-09-17T21:24:52.545Z,44.40
2022-09-17T21:29:57.836Z,45.00
2022-09-17T21:35:04.130Z,44.17
2022-09-17T21:40:10.400Z,44.45
2022-09-17T21:45:15.989Z,44.33
2022-09-17T21:50:21.758Z,44.42
2022-09-17T21:55:27.152Z,44.67
2022-09-17T22:00:33.622Z,44.53
2022-09-17T22:05:38.700Z,44.63
2022-09-17T22:10:43.930Z,44.73
2022-09-17T22:15:51.932Z,44.37
2022-09-17T22:20:57.430Z,44.30
2022-09-17T22:26:04.531Z,44.57
2022-09-17T22:31:13.127Z,44.10
2022-09-17T22:36:21.433Z,44.00
2022-09-17T22:41:32.260Z,43.53
2022-09-17T22:46:39.748Z,44.40
2022-09-17T22:51:47.121Z,44.17
2022-09-17T22:56:51.984Z,44.27
2022-09-17T23:01:57.646Z,43.80
2022-09-17T23:07:03.617Z,43.63
2022-09-17T23:12:08.487Z,43.40
2022-09-17T23:17:14.459Z,43.67
2022-09-17T23:22:21.142Z,43.60
2022-09-17T23:27:27.091Z,43.43
2022-09-17T23:32:32.060Z,43.73
2022-09-17T23:37:38.041Z,43.27
2022-09-17T23:42:43.428Z,44.00
2022-09-17T23:47:48.786Z,43.40
2022-09-17T23:52:53.826Z,43.83
2022-09-17T23:57:59.185Z,42.97
